Impacts TAF Board INFO
FOR SITUATIONAL AWARENESS. NOT TO BE USED FOR FLIGHT PLANNING PURPOSES.
IDs:

KTCL - Tuscaloosa Rgnl, AL, US

Issued at 1506 UTC 23 Jul 2018
Updated at 1706 UTC 23 Jul 2018
Potential Impact None Slight Moderate High
Time1653Z 23/18Z 23/19Z 23/20Z 23/21Z 23/22Z 23/23Z 24/00Z 24/01Z 24/02Z 24/03Z 24/04Z 24/05Z 24/06Z>>
Type OBS PRVL PRVL PRVL PRVL PRVL PRVL PRVL PRVL PRVL PRVL PRVL PRVL PRVL
VIS 10 >6 >6 >6 >6 >6 >6 >6 >6 >6 >6 >6 >6 >6
CIG 46 50 50 50 50 50 50 50 -- -- -- -- -- --
Cover BKN BKN BKN BKN BKN BKN BKN BKN SKC SKC SKC SKC SKC SKC
FltCat VFR VFR VFR VFR VFR VFR VFR VFR VFR VFR VFR VFR VFR VFR
WX -- -- -- -- -- -- -- -- -- -- -- -- -- --
WDir 300 330 330 330 330 330 330 330 350 350 350 350 350 350
WSpd 9 8 8 8 8 8 8 8 3 3 3 3 3 3
WGst -- -- -- -- -- -- -- -- -- -- -- -- -- --

Raw TAF
KTCL 231506Z 2315/2412 33008KT P6SM SCT025 BKN050
  TEMPO 2315/2317 BKN025
  FM240100 35003KT P6SM SKC
  FM240900 01003KT 4SM BR SKC


Raw METAR
KTCL 231653Z 30009KT 10SM SCT035 BKN046 29/20 A2986 RMK AO2 SLP108 T02940200
KTCL 231553Z 33006KT 10SM FEW030 BKN038 28/19 A2985 RMK AO2 SLP107 T02780194
KTCL 231515Z 34008KT 10SM SCT023 28/20 A2985 RMK AO2 T02780200
KTCL 231453Z 32008KT 10SM BKN023 27/20 A2985 RMK AO2 SLP105 T02720200 50001

METAR Board
Radar Display
Forecast Discussion

FOR SITUATIONAL AWARENESS. NOT TO BE USED FOR FLIGHT PLANNING PURPOSES.